sensor_id;sensor_type;location;lat;lon;timestamp;P1;durP1;ratioP1;P2;durP2;ratioP2
64868;SDS011;51349;52.424;10.840;2023-10-08T00:03:24;1.10;;;0.10;;
64868;SDS011;51349;52.424;10.840;2023-10-08T00:08:29;0.43;;;0.30;;
64868;SDS011;51349;52.424;10.840;2023-10-08T00:13:29;0.20;;;0.20;;
64868;SDS011;51349;52.424;10.840;2023-10-08T00:18:30;0.50;;;0.10;;
64868;SDS011;51349;52.424;10.840;2023-10-08T00:23:33;0.52;;;0.13;;
64868;SDS011;51349;52.424;10.840;2023-10-08T00:28:35;0.30;;;0.30;;
64868;SDS011;51349;52.424;10.840;2023-10-08T00:33:35;0.30;;;0.30;;
64868;SDS011;51349;52.424;10.840;2023-10-08T00:38:36;0.47;;;0.47;;
64868;SDS011;51349;52.424;10.840;2023-10-08T00:43:44;0.63;;;0.43;;
64868;SDS011;51349;52.424;10.840;2023-10-08T00:48:45;0.68;;;0.68;;
64868;SDS011;51349;52.424;10.840;2023-10-08T00:53:47;1.02;;;1.00;;
64868;SDS011;51349;52.424;10.840;2023-10-08T00:58:52;1.08;;;1.05;;
64868;SDS011;51349;52.424;10.840;2023-10-08T01:03:54;2.08;;;1.10;;
64868;SDS011;51349;52.424;10.840;2023-10-08T01:08:55;1.55;;;1.00;;
64868;SDS011;51349;52.424;10.840;2023-10-08T01:13:58;1.40;;;1.10;;
64868;SDS011;51349;52.424;10.840;2023-10-08T01:18:59;3.55;;;1.15;;
64868;SDS011;51349;52.424;10.840;2023-10-08T01:24:00;1.58;;;1.30;;
64868;SDS011;51349;52.424;10.840;2023-10-08T01:29:09;2.20;;;1.10;;
64868;SDS011;51349;52.424;10.840;2023-10-08T01:34:11;2.50;;;1.40;;
64868;SDS011;51349;52.424;10.840;2023-10-08T01:39:16;3.70;;;1.85;;
64868;SDS011;51349;52.424;10.840;2023-10-08T01:44:17;1.77;;;1.00;;
64868;SDS011;51349;52.424;10.840;2023-10-08T01:49:18;3.53;;;1.20;;
64868;SDS011;51349;52.424;10.840;2023-10-08T01:54:22;1.85;;;1.08;;
64868;SDS011;51349;52.424;10.840;2023-10-08T01:59:26;2.78;;;1.25;;
64868;SDS011;51349;52.424;10.840;2023-10-08T02:04:26;2.20;;;1.08;;
64868;SDS011;51349;52.424;10.840;2023-10-08T02:09:27;2.22;;;1.05;;
64868;SDS011;51349;52.424;10.840;2023-10-08T02:14:27;2.13;;;0.95;;
64868;SDS011;51349;52.424;10.840;2023-10-08T02:19:34;2.20;;;1.20;;
64868;SDS011;51349;52.424;10.840;2023-10-08T02:24:37;2.97;;;1.02;;
64868;SDS011;51349;52.424;10.840;2023-10-08T02:29:38;2.88;;;1.13;;
64868;SDS011;51349;52.424;10.840;2023-10-08T02:34:39;2.65;;;1.20;;
64868;SDS011;51349;52.424;10.840;2023-10-08T02:39:40;1.95;;;1.20;;
64868;SDS011;51349;52.424;10.840;2023-10-08T02:44:41;3.70;;;1.20;;
64868;SDS011;51349;52.424;10.840;2023-10-08T02:49:42;1.90;;;1.00;;
64868;SDS011;51349;52.424;10.840;2023-10-08T02:54:42;2.47;;;0.80;;
64868;SDS011;51349;52.424;10.840;2023-10-08T02:59:43;2.33;;;1.15;;
64868;SDS011;51349;52.424;10.840;2023-10-08T03:04:45;1.92;;;1.27;;
64868;SDS011;51349;52.424;10.840;2023-10-08T03:09:50;2.10;;;1.30;;
64868;SDS011;51349;52.424;10.840;2023-10-08T03:14:51;1.48;;;1.00;;
64868;SDS011;51349;52.424;10.840;2023-10-08T03:20:01;1.27;;;1.10;;
64868;SDS011;51349;52.424;10.840;2023-10-08T03:25:22;1.33;;;1.00;;
64868;SDS011;51349;52.424;10.840;2023-10-08T03:30:24;3.47;;;1.00;;
64868;SDS011;51349;52.424;10.840;2023-10-08T03:35:26;2.33;;;1.00;;
64868;SDS011;51349;52.424;10.840;2023-10-08T03:40:36;2.90;;;1.10;;
64868;SDS011;51349;52.424;10.840;2023-10-08T03:45:43;1.15;;;0.90;;
64868;SDS011;51349;52.424;10.840;2023-10-08T03:51:16;2.60;;;1.25;;
64868;SDS011;51349;52.424;10.840;2023-10-08T03:56:20;1.52;;;0.95;;
64868;SDS011;51349;52.424;10.840;2023-10-08T04:01:21;1.70;;;1.50;;
64868;SDS011;51349;52.424;10.840;2023-10-08T04:06:24;0.73;;;0.70;;
64868;SDS011;51349;52.424;10.840;2023-10-08T04:11:49;1.10;;;0.90;;
64868;SDS011;51349;52.424;10.840;2023-10-08T04:16:51;1.95;;;1.02;;
64868;SDS011;51349;52.424;10.840;2023-10-08T04:21:53;1.00;;;0.70;;
64868;SDS011;51349;52.424;10.840;2023-10-08T04:26:54;1.00;;;0.90;;
64868;SDS011;51349;52.424;10.840;2023-10-08T04:31:59;3.13;;;1.10;;
64868;SDS011;51349;52.424;10.840;2023-10-08T04:37:12;1.92;;;0.95;;
64868;SDS011;51349;52.424;10.840;2023-10-08T04:42:12;2.40;;;1.10;;
64868;SDS011;51349;52.424;10.840;2023-10-08T04:47:14;2.70;;;1.17;;
64868;SDS011;51349;52.424;10.840;2023-10-08T04:52:31;1.50;;;1.20;;
64868;SDS011;51349;52.424;10.840;2023-10-08T04:57:34;1.70;;;1.20;;
64868;SDS011;51349;52.424;10.840;2023-10-08T05:02:35;1.47;;;1.00;;
64868;SDS011;51349;52.424;10.840;2023-10-08T05:07:50;1.40;;;1.00;;
64868;SDS011;51349;52.424;10.840;2023-10-08T05:12:54;2.42;;;1.23;;
64868;SDS011;51349;52.424;10.840;2023-10-08T05:18:05;3.05;;;1.08;;
64868;SDS011;51349;52.424;10.840;2023-10-08T05:23:14;2.13;;;1.20;;
64868;SDS011;51349;52.424;10.840;2023-10-08T05:28:25;3.58;;;1.10;;
64868;SDS011;51349;52.424;10.840;2023-10-08T05:33:25;4.90;;;1.95;;
64868;SDS011;51349;52.424;10.840;2023-10-08T05:38:38;1.83;;;1.27;;
64868;SDS011;51349;52.424;10.840;2023-10-08T05:43:48;2.22;;;1.15;;
64868;SDS011;51349;52.424;10.840;2023-10-08T05:48:59;4.45;;;1.40;;
64868;SDS011;51349;52.424;10.840;2023-10-08T05:59:29;2.63;;;1.00;;
64868;SDS011;51349;52.424;10.840;2023-10-08T06:04:38;1.55;;;1.30;;
64868;SDS011;51349;52.424;10.840;2023-10-08T06:09:57;1.95;;;1.20;;
64868;SDS011;51349;52.424;10.840;2023-10-08T06:15:14;1.93;;;1.10;;
64868;SDS011;51349;52.424;10.840;2023-10-08T06:20:24;1.25;;;1.20;;
64868;SDS011;51349;52.424;10.840;2023-10-08T06:25:26;2.90;;;1.42;;
64868;SDS011;51349;52.424;10.840;2023-10-08T06:30:28;3.33;;;1.40;;
64868;SDS011;51349;52.424;10.840;2023-10-08T06:35:34;4.93;;;1.60;;
64868;SDS011;51349;52.424;10.840;2023-10-08T06:40:36;2.65;;;1.50;;
64868;SDS011;51349;52.424;10.840;2023-10-08T06:45:46;3.03;;;1.40;;
64868;SDS011;51349;52.424;10.840;2023-10-08T06:50:47;2.08;;;1.33;;
64868;SDS011;51349;52.424;10.840;2023-10-08T06:55:49;4.00;;;1.60;;
64868;SDS011;51349;52.424;10.840;2023-10-08T07:00:56;1.73;;;1.48;;
64868;SDS011;51349;52.424;10.840;2023-10-08T07:05:58;2.15;;;1.48;;
64868;SDS011;51349;52.424;10.840;2023-10-08T07:11:03;2.55;;;1.48;;
64868;SDS011;51349;52.424;10.840;2023-10-08T07:16:11;2.67;;;1.58;;
64868;SDS011;51349;52.424;10.840;2023-10-08T07:21:12;4.35;;;1.42;;
64868;SDS011;51349;52.424;10.840;2023-10-08T07:26:12;2.83;;;1.58;;
64868;SDS011;51349;52.424;10.840;2023-10-08T07:31:14;3.10;;;1.70;;
64868;SDS011;51349;52.424;10.840;2023-10-08T07:36:20;4.50;;;1.92;;
64868;SDS011;51349;52.424;10.840;2023-10-08T07:41:22;2.38;;;1.55;;
64868;SDS011;51349;52.424;10.840;2023-10-08T07:46:23;4.18;;;1.80;;
64868;SDS011;51349;52.424;10.840;2023-10-08T07:51:26;2.85;;;1.60;;
64868;SDS011;51349;52.424;10.840;2023-10-08T07:56:27;5.68;;;2.30;;
64868;SDS011;51349;52.424;10.840;2023-10-08T08:01:30;4.38;;;1.65;;
64868;SDS011;51349;52.424;10.840;2023-10-08T08:06:33;3.45;;;1.40;;
64868;SDS011;51349;52.424;10.840;2023-10-08T08:11:34;1.80;;;1.40;;
64868;SDS011;51349;52.424;10.840;2023-10-08T08:16:37;1.95;;;1.40;;
64868;SDS011;51349;52.424;10.840;2023-10-08T08:21:37;2.85;;;1.38;;
64868;SDS011;51349;52.424;10.840;2023-10-08T08:26:45;3.63;;;1.50;;
64868;SDS011;51349;52.424;10.840;2023-10-08T08:32:01;2.58;;;1.27;;
64868;SDS011;51349;52.424;10.840;2023-10-08T08:37:04;2.50;;;1.42;;
64868;SDS011;51349;52.424;10.840;2023-10-08T08:42:05;2.90;;;1.40;;
64868;SDS011;51349;52.424;10.840;2023-10-08T08:47:05;2.72;;;1.50;;
64868;SDS011;51349;52.424;10.840;2023-10-08T08:52:07;1.83;;;1.40;;
64868;SDS011;51349;52.424;10.840;2023-10-08T08:57:09;1.75;;;1.20;;
64868;SDS011;51349;52.424;10.840;2023-10-08T09:02:20;2.72;;;1.20;;
64868;SDS011;51349;52.424;10.840;2023-10-08T09:07:20;2.03;;;1.30;;
64868;SDS011;51349;52.424;10.840;2023-10-08T09:12:21;3.15;;;1.50;;
64868;SDS011;51349;52.424;10.840;2023-10-08T09:17:23;3.00;;;1.13;;
64868;SDS011;51349;52.424;10.840;2023-10-08T09:22:25;2.05;;;1.15;;
64868;SDS011;51349;52.424;10.840;2023-10-08T09:27:27;2.72;;;1.33;;
64868;SDS011;51349;52.424;10.840;2023-10-08T09:32:30;1.02;;;0.93;;
64868;SDS011;51349;52.424;10.840;2023-10-08T09:37:33;1.50;;;1.10;;
64868;SDS011;51349;52.424;10.840;2023-10-08T09:42:35;3.03;;;1.13;;
64868;SDS011;51349;52.424;10.840;2023-10-08T09:47:38;2.33;;;1.15;;
64868;SDS011;51349;52.424;10.840;2023-10-08T09:52:49;1.63;;;1.42;;
64868;SDS011;51349;52.424;10.840;2023-10-08T09:57:57;1.33;;;1.02;;
64868;SDS011;51349;52.424;10.840;2023-10-08T10:02:59;1.63;;;1.02;;
64868;SDS011;51349;52.424;10.840;2023-10-08T10:08:04;1.33;;;0.98;;
64868;SDS011;51349;52.424;10.840;2023-10-08T10:13:06;1.30;;;1.00;;
64868;SDS011;51349;52.424;10.840;2023-10-08T10:18:11;1.60;;;1.00;;
64868;SDS011;51349;52.424;10.840;2023-10-08T10:28:40;1.58;;;1.00;;
64868;SDS011;51349;52.424;10.840;2023-10-08T10:33:41;2.58;;;1.13;;
64868;SDS011;51349;52.424;10.840;2023-10-08T10:38:42;1.45;;;0.75;;
64868;SDS011;51349;52.424;10.840;2023-10-08T10:43:43;1.40;;;1.13;;
64868;SDS011;51349;52.424;10.840;2023-10-08T10:48:52;1.08;;;0.98;;
64868;SDS011;51349;52.424;10.840;2023-10-08T10:54:17;1.83;;;1.00;;
64868;SDS011;51349;52.424;10.840;2023-10-08T10:59:23;2.20;;;0.90;;
64868;SDS011;51349;52.424;10.840;2023-10-08T11:04:27;4.53;;;1.08;;
64868;SDS011;51349;52.424;10.840;2023-10-08T11:09:31;1.05;;;0.90;;
64868;SDS011;51349;52.424;10.840;2023-10-08T11:14:41;1.23;;;1.00;;
64868;SDS011;51349;52.424;10.840;2023-10-08T11:19:45;1.77;;;1.08;;
64868;SDS011;51349;52.424;10.840;2023-10-08T11:24:46;1.10;;;1.00;;
64868;SDS011;51349;52.424;10.840;2023-10-08T11:29:48;2.08;;;1.77;;
64868;SDS011;51349;52.424;10.840;2023-10-08T11:34:57;1.33;;;1.23;;
64868;SDS011;51349;52.424;10.840;2023-10-08T11:40:01;2.17;;;1.38;;
64868;SDS011;51349;52.424;10.840;2023-10-08T11:45:17;1.55;;;1.00;;
64868;SDS011;51349;52.424;10.840;2023-10-08T11:50:17;1.38;;;1.20;;
64868;SDS011;51349;52.424;10.840;2023-10-08T11:55:21;1.40;;;1.10;;
64868;SDS011;51349;52.424;10.840;2023-10-08T12:00:21;1.13;;;1.00;;
64868;SDS011;51349;52.424;10.840;2023-10-08T12:05:25;1.75;;;1.20;;
64868;SDS011;51349;52.424;10.840;2023-10-08T12:10:26;1.92;;;1.10;;
64868;SDS011;51349;52.424;10.840;2023-10-08T12:15:31;2.63;;;1.02;;
64868;SDS011;51349;52.424;10.840;2023-10-08T12:20:38;1.73;;;1.10;;
64868;SDS011;51349;52.424;10.840;2023-10-08T12:25:39;1.35;;;1.10;;
64868;SDS011;51349;52.424;10.840;2023-10-08T12:30:48;3.25;;;1.20;;
64868;SDS011;51349;52.424;10.840;2023-10-08T12:35:49;1.83;;;1.08;;
64868;SDS011;51349;52.424;10.840;2023-10-08T12:40:55;2.55;;;1.10;;
64868;SDS011;51349;52.424;10.840;2023-10-08T12:45:59;1.38;;;1.27;;
64868;SDS011;51349;52.424;10.840;2023-10-08T12:51:02;2.92;;;0.93;;
64868;SDS011;51349;52.424;10.840;2023-10-08T12:56:07;3.38;;;1.20;;
64868;SDS011;51349;52.424;10.840;2023-10-08T13:01:15;3.05;;;1.10;;
64868;SDS011;51349;52.424;10.840;2023-10-08T13:06:18;2.22;;;1.40;;
64868;SDS011;51349;52.424;10.840;2023-10-08T13:11:23;1.02;;;1.00;;
64868;SDS011;51349;52.424;10.840;2023-10-08T13:16:27;1.27;;;1.13;;
64868;SDS011;51349;52.424;10.840;2023-10-08T13:21:37;1.48;;;0.93;;
64868;SDS011;51349;52.424;10.840;2023-10-08T13:26:38;2.28;;;1.13;;
64868;SDS011;51349;52.424;10.840;2023-10-08T13:31:38;1.90;;;1.05;;
64868;SDS011;51349;52.424;10.840;2023-10-08T13:36:39;2.58;;;1.00;;
64868;SDS011;51349;52.424;10.840;2023-10-08T13:41:40;1.13;;;0.93;;
64868;SDS011;51349;52.424;10.840;2023-10-08T13:46:41;1.20;;;0.93;;
64868;SDS011;51349;52.424;10.840;2023-10-08T13:52:00;4.43;;;1.20;;
64868;SDS011;51349;52.424;10.840;2023-10-08T13:57:01;2.05;;;0.93;;
64868;SDS011;51349;52.424;10.840;2023-10-08T14:02:02;2.88;;;1.27;;
64868;SDS011;51349;52.424;10.840;2023-10-08T14:07:14;1.67;;;1.20;;
64868;SDS011;51349;52.424;10.840;2023-10-08T14:12:17;2.13;;;1.23;;
64868;SDS011;51349;52.424;10.840;2023-10-08T14:17:18;2.25;;;1.13;;
64868;SDS011;51349;52.424;10.840;2023-10-08T14:22:39;1.27;;;1.10;;
64868;SDS011;51349;52.424;10.840;2023-10-08T14:27:44;1.50;;;1.17;;
64868;SDS011;51349;52.424;10.840;2023-10-08T14:32:51;1.90;;;1.30;;
64868;SDS011;51349;52.424;10.840;2023-10-08T14:37:52;2.38;;;1.35;;
64868;SDS011;51349;52.424;10.840;2023-10-08T14:43:12;3.38;;;1.20;;
64868;SDS011;51349;52.424;10.840;2023-10-08T14:48:15;3.60;;;1.50;;
64868;SDS011;51349;52.424;10.840;2023-10-08T14:53:16;2.63;;;1.55;;
64868;SDS011;51349;52.424;10.840;2023-10-08T14:58:17;2.83;;;1.40;;
64868;SDS011;51349;52.424;10.840;2023-10-08T15:03:18;3.25;;;1.15;;
64868;SDS011;51349;52.424;10.840;2023-10-08T15:08:21;1.45;;;1.20;;
64868;SDS011;51349;52.424;10.840;2023-10-08T15:13:22;3.00;;;1.50;;
64868;SDS011;51349;52.424;10.840;2023-10-08T15:18:24;2.97;;;1.40;;
64868;SDS011;51349;52.424;10.840;2023-10-08T15:23:31;2.85;;;1.20;;
64868;SDS011;51349;52.424;10.840;2023-10-08T15:28:32;1.52;;;1.30;;
64868;SDS011;51349;52.424;10.840;2023-10-08T15:33:33;1.67;;;1.20;;
64868;SDS011;51349;52.424;10.840;2023-10-08T15:38:33;1.20;;;1.10;;
64868;SDS011;51349;52.424;10.840;2023-10-08T15:43:34;2.53;;;1.50;;
64868;SDS011;51349;52.424;10.840;2023-10-08T15:48:34;1.98;;;1.40;;
64868;SDS011;51349;52.424;10.840;2023-10-08T15:53:37;3.22;;;1.55;;
64868;SDS011;51349;52.424;10.840;2023-10-08T15:58:39;2.25;;;1.38;;
64868;SDS011;51349;52.424;10.840;2023-10-08T16:03:41;2.40;;;1.50;;
64868;SDS011;51349;52.424;10.840;2023-10-08T16:08:41;2.90;;;1.70;;
64868;SDS011;51349;52.424;10.840;2023-10-08T16:13:42;5.38;;;3.13;;
64868;SDS011;51349;52.424;10.840;2023-10-08T16:18:43;3.45;;;1.63;;
64868;SDS011;51349;52.424;10.840;2023-10-08T16:23:44;2.10;;;1.60;;
64868;SDS011;51349;52.424;10.840;2023-10-08T16:28:44;3.38;;;1.75;;
64868;SDS011;51349;52.424;10.840;2023-10-08T16:33:45;2.28;;;1.60;;
64868;SDS011;51349;52.424;10.840;2023-10-08T16:38:45;2.20;;;1.60;;
64868;SDS011;51349;52.424;10.840;2023-10-08T16:43:46;4.40;;;2.50;;
64868;SDS011;51349;52.424;10.840;2023-10-08T16:48:47;5.13;;;3.97;;
64868;SDS011;51349;52.424;10.840;2023-10-08T16:53:47;3.42;;;2.90;;
64868;SDS011;51349;52.424;10.840;2023-10-08T16:58:48;3.72;;;2.30;;
64868;SDS011;51349;52.424;10.840;2023-10-08T17:03:49;3.03;;;2.40;;
64868;SDS011;51349;52.424;10.840;2023-10-08T17:08:49;4.43;;;2.60;;
64868;SDS011;51349;52.424;10.840;2023-10-08T17:13:50;3.58;;;2.20;;
64868;SDS011;51349;52.424;10.840;2023-10-08T17:18:51;10.35;;;5.60;;
64868;SDS011;51349;52.424;10.840;2023-10-08T17:23:51;2.20;;;2.00;;
64868;SDS011;51349;52.424;10.840;2023-10-08T17:28:52;4.07;;;2.78;;
64868;SDS011;51349;52.424;10.840;2023-10-08T17:33:53;4.53;;;2.22;;
64868;SDS011;51349;52.424;10.840;2023-10-08T17:38:54;2.30;;;1.83;;
64868;SDS011;51349;52.424;10.840;2023-10-08T17:43:55;3.53;;;1.73;;
64868;SDS011;51349;52.424;10.840;2023-10-08T17:48:56;2.33;;;1.50;;
64868;SDS011;51349;52.424;10.840;2023-10-08T17:53:57;3.10;;;2.35;;
64868;SDS011;51349;52.424;10.840;2023-10-08T17:59:01;4.57;;;3.00;;
64868;SDS011;51349;52.424;10.840;2023-10-08T18:04:02;2.67;;;2.38;;
64868;SDS011;51349;52.424;10.840;2023-10-08T18:09:03;3.72;;;2.75;;
64868;SDS011;51349;52.424;10.840;2023-10-08T18:14:10;5.40;;;2.72;;
64868;SDS011;51349;52.424;10.840;2023-10-08T18:19:14;2.60;;;2.33;;
64868;SDS011;51349;52.424;10.840;2023-10-08T18:24:15;3.20;;;2.78;;
64868;SDS011;51349;52.424;10.840;2023-10-08T18:29:17;3.83;;;1.85;;
64868;SDS011;51349;52.424;10.840;2023-10-08T18:34:18;2.65;;;2.03;;
64868;SDS011;51349;52.424;10.840;2023-10-08T18:39:19;5.15;;;3.13;;
64868;SDS011;51349;52.424;10.840;2023-10-08T18:44:20;2.40;;;2.20;;
64868;SDS011;51349;52.424;10.840;2023-10-08T18:49:22;3.13;;;2.03;;
64868;SDS011;51349;52.424;10.840;2023-10-08T18:54:26;4.75;;;2.92;;
64868;SDS011;51349;52.424;10.840;2023-10-08T18:59:28;2.65;;;2.00;;
64868;SDS011;51349;52.424;10.840;2023-10-08T19:04:31;5.10;;;2.50;;
64868;SDS011;51349;52.424;10.840;2023-10-08T19:09:31;2.97;;;2.30;;
64868;SDS011;51349;52.424;10.840;2023-10-08T19:14:33;3.28;;;2.47;;
64868;SDS011;51349;52.424;10.840;2023-10-08T19:19:33;3.55;;;3.17;;
64868;SDS011;51349;52.424;10.840;2023-10-08T19:24:34;3.92;;;2.50;;
64868;SDS011;51349;52.424;10.840;2023-10-08T19:29:35;2.42;;;2.22;;
64868;SDS011;51349;52.424;10.840;2023-10-08T19:34:38;2.72;;;2.10;;
64868;SDS011;51349;52.424;10.840;2023-10-08T19:39:39;5.22;;;2.03;;
64868;SDS011;51349;52.424;10.840;2023-10-08T19:44:39;3.97;;;1.85;;
64868;SDS011;51349;52.424;10.840;2023-10-08T19:49:40;2.60;;;1.80;;
64868;SDS011;51349;52.424;10.840;2023-10-08T19:54:41;4.65;;;2.10;;
64868;SDS011;51349;52.424;10.840;2023-10-08T19:59:41;3.78;;;2.65;;
64868;SDS011;51349;52.424;10.840;2023-10-08T20:04:42;3.28;;;1.98;;
64868;SDS011;51349;52.424;10.840;2023-10-08T20:09:44;3.50;;;2.05;;
64868;SDS011;51349;52.424;10.840;2023-10-08T20:14:47;2.92;;;1.80;;
64868;SDS011;51349;52.424;10.840;2023-10-08T20:19:51;2.80;;;2.20;;
64868;SDS011;51349;52.424;10.840;2023-10-08T20:24:51;2.85;;;1.90;;
64868;SDS011;51349;52.424;10.840;2023-10-08T20:29:52;3.95;;;2.30;;
64868;SDS011;51349;52.424;10.840;2023-10-08T20:34:54;1.70;;;1.60;;
64868;SDS011;51349;52.424;10.840;2023-10-08T20:39:56;3.00;;;2.10;;
64868;SDS011;51349;52.424;10.840;2023-10-08T20:44:58;2.30;;;2.00;;
64868;SDS011;51349;52.424;10.840;2023-10-08T20:49:59;3.17;;;2.03;;
64868;SDS011;51349;52.424;10.840;2023-10-08T20:55:00;4.35;;;2.00;;
64868;SDS011;51349;52.424;10.840;2023-10-08T21:00:01;4.07;;;2.28;;
64868;SDS011;51349;52.424;10.840;2023-10-08T21:05:03;2.25;;;1.90;;
64868;SDS011;51349;52.424;10.840;2023-10-08T21:10:08;4.15;;;2.05;;
64868;SDS011;51349;52.424;10.840;2023-10-08T21:15:12;4.25;;;2.10;;
64868;SDS011;51349;52.424;10.840;2023-10-08T21:20:18;2.88;;;2.15;;
64868;SDS011;51349;52.424;10.840;2023-10-08T21:25:22;4.60;;;1.90;;
64868;SDS011;51349;52.424;10.840;2023-10-08T21:30:23;2.65;;;2.10;;
64868;SDS011;51349;52.424;10.840;2023-10-08T21:35:25;3.58;;;1.85;;
64868;SDS011;51349;52.424;10.840;2023-10-08T21:40:27;1.92;;;1.73;;
64868;SDS011;51349;52.424;10.840;2023-10-08T21:45:28;3.72;;;1.80;;
64868;SDS011;51349;52.424;10.840;2023-10-08T21:50:31;2.28;;;2.08;;
64868;SDS011;51349;52.424;10.840;2023-10-08T21:55:32;2.75;;;1.98;;
64868;SDS011;51349;52.424;10.840;2023-10-08T22:00:32;3.80;;;1.63;;
64868;SDS011;51349;52.424;10.840;2023-10-08T22:05:44;2.00;;;1.60;;
64868;SDS011;51349;52.424;10.840;2023-10-08T22:10:45;1.95;;;1.60;;
64868;SDS011;51349;52.424;10.840;2023-10-08T22:15:46;1.63;;;1.52;;
64868;SDS011;51349;52.424;10.840;2023-10-08T22:20:55;1.85;;;1.67;;
64868;SDS011;51349;52.424;10.840;2023-10-08T22:26:06;2.63;;;1.70;;
64868;SDS011;51349;52.424;10.840;2023-10-08T22:31:08;2.78;;;1.50;;
64868;SDS011;51349;52.424;10.840;2023-10-08T22:36:12;2.45;;;1.90;;
64868;SDS011;51349;52.424;10.840;2023-10-08T22:41:18;2.05;;;1.60;;
64868;SDS011;51349;52.424;10.840;2023-10-08T22:46:22;2.92;;;1.80;;
64868;SDS011;51349;52.424;10.840;2023-10-08T22:51:24;2.65;;;1.73;;
64868;SDS011;51349;52.424;10.840;2023-10-08T22:56:25;3.75;;;1.80;;
64868;SDS011;51349;52.424;10.840;2023-10-08T23:01:27;2.10;;;1.90;;
64868;SDS011;51349;52.424;10.840;2023-10-08T23:06:29;2.25;;;1.77;;
64868;SDS011;51349;52.424;10.840;2023-10-08T23:11:30;3.58;;;1.80;;
64868;SDS011;51349;52.424;10.840;2023-10-08T23:16:30;1.85;;;1.67;;
64868;SDS011;51349;52.424;10.840;2023-10-08T23:21:32;4.47;;;1.80;;
64868;SDS011;51349;52.424;10.840;2023-10-08T23:26:36;1.50;;;1.40;;
64868;SDS011;51349;52.424;10.840;2023-10-08T23:31:37;4.00;;;1.65;;
64868;SDS011;51349;52.424;10.840;2023-10-08T23:36:41;1.67;;;1.58;;
64868;SDS011;51349;52.424;10.840;2023-10-08T23:41:45;2.70;;;1.80;;
64868;SDS011;51349;52.424;10.840;2023-10-08T23:46:52;3.58;;;1.95;;
64868;SDS011;51349;52.424;10.840;2023-10-08T23:52:23;1.70;;;1.60;;
64868;SDS011;51349;52.424;10.840;2023-10-08T23:57:24;2.35;;;1.80;;
